Wilson Heron — 9HJW9 — position and weather

sailwx.info

Track history (hours):
 
Tides and Currents Weather Stations Pressure Air Temp Water Temp Dewpoint Dewpoint Depression Visibility Wind Speed Wind Dir Waves Ship Positions

Wilson Heron

Last reported at 2014-Oct-01 17:33 UTC. Time now 2014-Oct-01 20:19 UTC.
Position N 38°36' W 009°45'.

Length 91 m; draft 5.8 m.

Type: Cargo ship. MMSI: 249075000.

Date/timePositionNaut miles runAvg speedWind from/ knotsBaromVisibWave heightAir tempDewpointWater temp
2014-Oct-01 17:33N 38°36' W 009°45'  
2014-Sep-28 04:30N 52°07' W 010°44'8 7.9
2014-Sep-28 03:33N 52°12' W 010°35'18 8.8
2014-Sep-28 01:33N 52°22' W 010°11'9 9.3
2014-Sep-28 00:33N 52°28' W 009°59'  
2014-Sep-25 02:26N 52°33' W 009°45'1212.6
2014-Sep-25 01:30N 52°26' W 010°01'1212.1
2014-Sep-25 00:33N 52°20' W 010°17'1211.8
2014-Sep-24 23:33N 52°12' W 010°32'1410.2
2014-Sep-24 22:11N 52°00' W 010°43'910.9
2014-Sep-24 21:22N 51°52' W 010°39'1010.5
2014-Sep-24 20:22N 51°42' W 010°32'810.3
2014-Sep-24 19:33N 51°36' W 010°23'10 9.8
2014-Sep-24 18:33N 51°31' W 010°09'1010.1
2014-Sep-24 17:34N 51°26' W 009°55'10 9.6
2014-Sep-24 16:34N 51°22' W 009°41'9 9.3
2014-Sep-24 15:34N 51°22' W 009°26'1010.2
2014-Sep-24 14:33N 51°25' W 009°10'1110.9
2014-Sep-24 13:33N 51°28' W 008°54'1211.6
2014-Sep-24 12:33N 51°32' W 008°36'1212.1
2014-Sep-24 11:34N 51°37' W 008°18'1312.5
2014-Sep-24 10:33N 51°44' W 008°01'1212.4
2014-Sep-24 09:34N 51°50' W 007°44'1212.2
2014-Sep-24 08:33N 51°57' W 007°27'1211.9
2014-Sep-24 07:33N 52°03' W 007°11'1010.4
2014-Sep-24 06:33N 52°10' W 006°58'8 7.7
2014-Sep-24 05:34N 52°17' W 007°01'6 5.5
2014-Sep-24 04:27N 52°23' W 006°58'0 0.0
2014-Sep-24 03:30N 52°23' W 006°58'0 0.0
2014-Sep-24 02:24N 52°23' W 006°58'0 0.0
2014-Sep-24 01:24N 52°23' W 006°58'0 0.0
2014-Sep-23 20:30N 52°23' W 006°58'0 0.0
2014-Sep-23 19:30N 52°23' W 006°58'0 0.0
2014-Sep-23 18:24N 52°23' W 006°58'0 0.0
2014-Sep-23 17:27N 52°23' W 006°58'0 0.0
2014-Sep-23 16:30N 52°23' W 006°58'0 0.0
2014-Sep-23 15:33N 52°23' W 006°58'0 0.0
2014-Sep-23 14:30N 52°23' W 006°58'0 0.0
2014-Sep-23 12:09N 52°23' W 006°58'0 0.0
2014-Sep-23 09:24N 52°23' W 006°58'0 0.0
2014-Sep-23 08:12N 52°23' W 006°58'0 0.0
2014-Sep-23 07:30N 52°23' W 006°58'0 0.0
2014-Sep-23 06:27N 52°23' W 006°58'0 0.0
2014-Sep-23 00:33N 52°23' W 006°58'0 0.0
2014-Sep-22 23:33N 52°23' W 006°58'1 0.2
2014-Sep-22 17:22N 52°22' W 006°58'5 6.6
2014-Sep-22 16:33N 52°17' W 007°00'8 7.7
2014-Sep-22 15:33N 52°09' W 006°57'0 0.4
2014-Sep-22 14:31N 52°09' W 006°58'0 0.0
2014-Sep-22 13:31N 52°09' W 006°58'0 0.0
2014-Sep-22 12:31N 52°09' W 006°58'1 0.5
2014-Sep-22 11:32N 52°09' W 006°58'9 8.8
2014-Sep-22 10:33N 52°00' W 006°56'10110.0
2014-Sep-22 00:26N 50°26' W 005°56'  
Track history (hours):
 
Tides and Currents Weather Stations Pressure Air Temp Water Temp Dewpoint Dewpoint Depression Visibility Wind Speed Wind Dir Waves Ship Positions

Wilson Heron

Last reported at 2014-Oct-01 17:33 UTC. Time now 2014-Oct-01 20:19 UTC.
Position N 38°36' W 009°45'.

Length 91 m; draft 5.8 m.

Type: Cargo ship. MMSI: 249075000.

Date/timePositionNaut miles runAvg speedWind from/ knotsBaromVisibWave heightAir tempDewpointWater temp
2014-Oct-01 17:33N 38°36' W 009°45'  
2014-Sep-28 04:30N 52°07' W 010°44'8 7.9
2014-Sep-28 03:33N 52°12' W 010°35'18 8.8
2014-Sep-28 01:33N 52°22' W 010°11'9 9.3
2014-Sep-28 00:33N 52°28' W 009°59'  
2014-Sep-25 02:26N 52°33' W 009°45'1212.6
2014-Sep-25 01:30N 52°26' W 010°01'1212.1
2014-Sep-25 00:33N 52°20' W 010°17'1211.8
2014-Sep-24 23:33N 52°12' W 010°32'1410.2
2014-Sep-24 22:11N 52°00' W 010°43'910.9
2014-Sep-24 21:22N 51°52' W 010°39'1010.5
2014-Sep-24 20:22N 51°42' W 010°32'810.3
2014-Sep-24 19:33N 51°36' W 010°23'10 9.8
2014-Sep-24 18:33N 51°31' W 010°09'1010.1
2014-Sep-24 17:34N 51°26' W 009°55'10 9.6
2014-Sep-24 16:34N 51°22' W 009°41'9 9.3
2014-Sep-24 15:34N 51°22' W 009°26'1010.2
2014-Sep-24 14:33N 51°25' W 009°10'1110.9
2014-Sep-24 13:33N 51°28' W 008°54'1211.6
2014-Sep-24 12:33N 51°32' W 008°36'1212.1
2014-Sep-24 11:34N 51°37' W 008°18'1312.5
2014-Sep-24 10:33N 51°44' W 008°01'1212.4
2014-Sep-24 09:34N 51°50' W 007°44'1212.2
2014-Sep-24 08:33N 51°57' W 007°27'1211.9
2014-Sep-24 07:33N 52°03' W 007°11'1010.4
2014-Sep-24 06:33N 52°10' W 006°58'8 7.7
2014-Sep-24 05:34N 52°17' W 007°01'6 5.5
2014-Sep-24 04:27N 52°23' W 006°58'0 0.0
2014-Sep-24 03:30N 52°23' W 006°58'0 0.0
2014-Sep-24 02:24N 52°23' W 006°58'0 0.0
2014-Sep-24 01:24N 52°23' W 006°58'0 0.0
2014-Sep-23 20:30N 52°23' W 006°58'0 0.0
2014-Sep-23 19:30N 52°23' W 006°58'0 0.0
2014-Sep-23 18:24N 52°23' W 006°58'0 0.0
2014-Sep-23 17:27N 52°23' W 006°58'0 0.0
2014-Sep-23 16:30N 52°23' W 006°58'0 0.0
2014-Sep-23 15:33N 52°23' W 006°58'0 0.0
2014-Sep-23 14:30N 52°23' W 006°58'0 0.0
2014-Sep-23 12:09N 52°23' W 006°58'0 0.0
2014-Sep-23 09:24N 52°23' W 006°58'0 0.0
2014-Sep-23 08:12N 52°23' W 006°58'0 0.0
2014-Sep-23 07:30N 52°23' W 006°58'0 0.0
2014-Sep-23 06:27N 52°23' W 006°58'0 0.0
2014-Sep-23 00:33N 52°23' W 006°58'0 0.0
2014-Sep-22 23:33N 52°23' W 006°58'1 0.2
2014-Sep-22 17:22N 52°22' W 006°58'5 6.6
2014-Sep-22 16:33N 52°17' W 007°00'8 7.7
2014-Sep-22 15:33N 52°09' W 006°57'0 0.4
2014-Sep-22 14:31N 52°09' W 006°58'0 0.0
2014-Sep-22 13:31N 52°09' W 006°58'0 0.0
2014-Sep-22 12:31N 52°09' W 006°58'1 0.5
2014-Sep-22 11:32N 52°09' W 006°58'9 8.8
2014-Sep-22 10:33N 52°00' W 006°56'10110.0
2014-Sep-22 00:26N 50°26' W 005°56'  

Dump ship's entire track history